createdAt,value
2023-04-15T00:00:08.249Z,21.30
2023-04-15T00:01:08.222Z,21.70
2023-04-15T00:02:08.243Z,21.20
2023-04-15T00:03:08.337Z,18.30
2023-04-15T00:04:08.194Z,19.10
2023-04-15T00:05:08.167Z,21.40
2023-04-15T00:06:08.153Z,22.40
2023-04-15T00:07:08.097Z,23.50
2023-04-15T00:08:08.125Z,18.50
2023-04-15T00:09:08.062Z,20.70
2023-04-15T00:10:08.041Z,23.60
2023-04-15T00:11:08.077Z,22.90
2023-04-15T00:12:08.059Z,21.00
2023-04-15T00:13:08.058Z,22.50
2023-04-15T00:14:08.006Z,20.80
2023-04-15T00:15:08.007Z,24.00
2023-04-15T00:16:08.023Z,23.80
2023-04-15T00:17:07.987Z,24.60
2023-04-15T00:18:08.014Z,21.30
2023-04-15T00:19:07.978Z,23.40
2023-04-15T00:20:07.902Z,23.40
2023-04-15T00:21:07.953Z,24.40
2023-04-15T00:22:07.899Z,25.00
2023-04-15T00:23:07.889Z,24.50
2023-04-15T00:24:07.945Z,24.60
2023-04-15T00:25:07.870Z,25.20
2023-04-15T00:26:07.819Z,27.00
2023-04-15T00:27:07.874Z,25.20
2023-04-15T00:28:07.822Z,25.10
2023-04-15T00:29:07.852Z,24.50
2023-04-15T00:30:07.843Z,26.40
2023-04-15T00:31:07.814Z,28.60
2023-04-15T00:32:07.765Z,29.00
2023-04-15T00:33:07.797Z,29.10
2023-04-15T00:34:07.767Z,29.30
2023-04-15T00:35:07.742Z,30.10
2023-04-15T00:36:07.869Z,22.50
2023-04-15T00:37:07.715Z,24.20
2023-04-15T00:38:07.667Z,27.00
2023-04-15T00:39:07.733Z,28.00
2023-04-15T00:40:07.649Z,27.40
2023-04-15T00:41:07.692Z,25.90
2023-04-15T00:42:07.722Z,26.10
2023-04-15T00:43:07.638Z,29.00
2023-04-15T00:44:07.628Z,30.90
2023-04-15T00:45:07.644Z,30.60
2023-04-15T00:46:07.608Z,25.00
2023-04-15T00:47:07.606Z,25.60
2023-04-15T00:48:07.734Z,28.60
2023-04-15T00:49:07.559Z,30.70
2023-04-15T00:50:07.506Z,29.50
2023-04-15T00:51:07.591Z,28.80
2023-04-15T00:52:07.502Z,31.20
2023-04-15T00:53:07.542Z,33.50
2023-04-15T00:54:07.521Z,29.30
2023-04-15T00:55:07.496Z,29.80
2023-04-15T00:56:07.483Z,29.40
2023-04-15T00:57:07.468Z,32.00
2023-04-15T00:58:07.420Z,27.30
2023-04-15T00:59:07.444Z,28.70
2023-04-15T01:00:07.444Z,34.10
2023-04-15T01:01:07.451Z,35.00
2023-04-15T01:02:07.503Z,36.90
2023-04-15T01:03:07.454Z,26.50
2023-04-15T01:04:07.408Z,30.00
2023-04-15T01:05:07.380Z,30.70
2023-04-15T01:06:07.370Z,33.80
2023-04-15T01:07:07.331Z,31.50
2023-04-15T01:08:07.313Z,29.80
2023-04-15T01:09:08.256Z,35.10
2023-04-15T01:10:07.285Z,35.20
2023-04-15T01:11:07.291Z,33.50
2023-04-15T01:12:07.276Z,27.90
2023-04-15T01:13:07.273Z,28.10
2023-04-15T01:14:07.241Z,29.90
2023-04-15T01:15:07.231Z,31.00
2023-04-15T01:16:07.999Z,30.00
2023-04-15T01:17:07.203Z,29.20
2023-04-15T01:18:07.192Z,28.90
2023-04-15T01:19:07.200Z,29.40
2023-04-15T01:20:07.214Z,31.50
2023-04-15T01:21:07.136Z,32.90
2023-04-15T01:22:07.127Z,32.20
2023-04-15T01:23:07.137Z,25.50
2023-04-15T01:24:07.159Z,30.30
2023-04-15T01:25:07.101Z,30.00
2023-04-15T01:26:07.129Z,33.60
2023-04-15T01:27:07.034Z,31.30
2023-04-15T01:28:07.078Z,31.60
2023-04-15T01:29:07.021Z,36.30
2023-04-15T01:30:07.141Z,37.70
2023-04-15T01:31:07.028Z,38.60
2023-04-15T01:32:06.988Z,28.80
2023-04-15T01:33:07.006Z,31.80
2023-04-15T01:34:07.007Z,34.80
2023-04-15T01:35:06.947Z,36.60
2023-04-15T01:36:07.029Z,37.30
2023-04-15T01:37:06.932Z,34.50
2023-04-15T01:38:06.950Z,32.40
2023-04-15T01:39:06.917Z,33.00
2023-04-15T01:40:06.930Z,35.30
2023-04-15T01:41:06.863Z,35.30
2023-04-15T01:42:06.934Z,35.50
2023-04-15T01:43:06.869Z,28.10
2023-04-15T01:44:06.840Z,29.60
2023-04-15T01:45:06.868Z,31.30
2023-04-15T01:46:06.848Z,34.80
2023-04-15T01:47:06.772Z,36.90
2023-04-15T01:48:06.939Z,37.00
2023-04-15T01:49:06.756Z,28.60
2023-04-15T01:50:06.775Z,30.30
2023-04-15T01:51:06.750Z,32.70
2023-04-15T01:52:06.771Z,32.90
2023-04-15T01:53:06.708Z,31.20
2023-04-15T01:54:06.846Z,37.90
2023-04-15T01:55:06.713Z,39.10
2023-04-15T01:56:06.714Z,41.00
2023-04-15T01:57:06.674Z,29.90
2023-04-15T01:58:06.680Z,35.60
2023-04-15T01:59:06.631Z,34.60
2023-04-15T02:00:06.699Z,35.00
2023-04-15T02:01:06.680Z,33.80
2023-04-15T02:02:06.656Z,40.90
2023-04-15T02:03:06.747Z,40.10
2023-04-15T02:04:06.625Z,39.40
2023-04-15T02:05:06.598Z,30.90
2023-04-15T02:06:06.633Z,36.70
2023-04-15T02:07:06.530Z,34.90
2023-04-15T02:08:06.531Z,34.50
2023-04-15T02:09:06.528Z,39.00
2023-04-15T02:10:06.529Z,38.30
2023-04-15T02:11:06.472Z,37.40
2023-04-15T02:12:06.537Z,28.60
2023-04-15T02:13:06.452Z,34.00
2023-04-15T02:14:06.522Z,32.40
2023-04-15T02:15:06.445Z,35.20
2023-04-15T02:16:06.468Z,42.20
2023-04-15T02:17:06.410Z,42.90
2023-04-15T02:18:06.549Z,37.00
2023-04-15T02:19:06.383Z,37.60
2023-04-15T02:20:06.411Z,34.80
2023-04-15T02:21:06.341Z,39.50
2023-04-15T02:22:06.379Z,39.70
2023-04-15T02:23:06.330Z,40.50
2023-04-15T02:24:06.467Z,30.10
2023-04-15T02:25:06.346Z,34.10
2023-04-15T02:26:06.318Z,34.70
2023-04-15T02:27:06.250Z,35.40
2023-04-15T02:28:06.322Z,40.30
2023-04-15T02:29:06.233Z,41.20
2023-04-15T02:30:06.283Z,38.00
2023-04-15T02:31:06.256Z,32.00
2023-04-15T02:32:06.345Z,35.50
2023-04-15T02:33:06.214Z,40.10
2023-04-15T02:34:06.244Z,37.70
2023-04-15T02:35:06.166Z,36.40
2023-04-15T02:36:06.333Z,36.00
2023-04-15T02:37:06.125Z,37.10
2023-04-15T02:38:06.138Z,38.90
2023-04-15T02:39:06.139Z,39.20
2023-04-15T02:40:06.151Z,37.40
2023-04-15T02:41:06.068Z,32.40
2023-04-15T02:42:06.129Z,35.90
2023-04-15T02:43:06.073Z,34.50
2023-04-15T02:44:06.071Z,38.20
2023-04-15T02:45:06.055Z,40.20
2023-04-15T02:46:06.135Z,41.50
2023-04-15T02:47:05.991Z,31.90
2023-04-15T02:48:06.325Z,35.60
2023-04-15T02:49:05.979Z,36.80
2023-04-15T02:50:05.991Z,37.80
2023-04-15T02:51:05.963Z,42.90
2023-04-15T02:52:05.992Z,43.80
2023-04-15T02:53:05.947Z,45.00
2023-04-15T02:54:05.999Z,35.30
2023-04-15T02:55:05.884Z,38.00
2023-04-15T02:56:05.922Z,37.80
2023-04-15T02:57:05.890Z,40.80
2023-04-15T02:58:06.597Z,42.00
2023-04-15T02:59:05.856Z,38.80
2023-04-15T03:00:05.911Z,37.90
2023-04-15T03:01:05.904Z,37.30
2023-04-15T03:02:05.862Z,34.70
2023-04-15T03:03:05.924Z,40.80
2023-04-15T03:04:05.917Z,40.70
2023-04-15T03:05:05.783Z,42.20
2023-04-15T03:06:05.859Z,33.50
2023-04-15T03:07:05.729Z,35.20
2023-04-15T03:08:05.775Z,34.40
2023-04-15T03:09:05.712Z,38.10
2023-04-15T03:10:05.712Z,39.20
2023-04-15T03:11:05.698Z,39.90
2023-04-15T03:12:05.851Z,36.20
2023-04-15T03:13:05.654Z,35.60
2023-04-15T03:14:05.681Z,40.40
2023-04-15T03:15:05.660Z,40.60
2023-04-15T03:16:05.698Z,41.40
2023-04-15T03:17:05.623Z,33.20
2023-04-15T03:18:05.687Z,34.40
2023-04-15T03:19:05.586Z,35.80
2023-04-15T03:20:05.644Z,36.10
2023-04-15T03:21:05.545Z,41.40
2023-04-15T03:22:05.588Z,42.70
2023-04-15T03:23:05.555Z,38.50
2023-04-15T03:24:05.591Z,39.00
2023-04-15T03:25:05.533Z,37.50
2023-04-15T03:26:05.545Z,41.40
2023-04-15T03:27:05.476Z,38.00
2023-04-15T03:28:05.538Z,37.30
2023-04-15T03:29:05.442Z,39.10
2023-04-15T03:30:05.591Z,40.80
2023-04-15T03:31:05.478Z,44.70
2023-04-15T03:32:05.435Z,45.10
2023-04-15T03:33:05.443Z,46.50
2023-04-15T03:34:05.434Z,36.40
2023-04-15T03:35:05.362Z,40.40
2023-04-15T03:36:05.448Z,39.40
2023-04-15T03:37:05.346Z,44.10
2023-04-15T03:38:05.357Z,46.90
2023-04-15T03:39:05.329Z,38.90
2023-04-15T03:40:05.326Z,40.20
2023-04-15T03:41:05.322Z,41.50
2023-04-15T03:42:05.364Z,48.10
2023-04-15T03:43:05.264Z,48.30
2023-04-15T03:44:05.265Z,50.00
2023-04-15T03:45:05.277Z,37.20
2023-04-15T03:46:05.356Z,41.30
2023-04-15T03:47:05.222Z,46.30
2023-04-15T03:48:16.536Z,52.70
2023-04-15T03:49:06.183Z,43.80
2023-04-15T03:50:05.239Z,43.70
2023-04-15T03:51:05.181Z,45.40
2023-04-15T03:52:05.180Z,56.20
2023-04-15T03:53:05.152Z,54.90
2023-04-15T03:54:05.301Z,48.40
2023-04-15T03:55:05.137Z,46.70
2023-04-15T03:56:05.150Z,55.50
2023-04-15T03:57:05.084Z,55.00
2023-04-15T03:58:05.096Z,42.50
2023-04-15T03:59:05.107Z,46.60
2023-04-15T04:00:05.228Z,50.10
2023-04-15T04:01:05.024Z,54.90
2023-04-15T04:02:05.065Z,47.40
2023-04-15T04:03:05.288Z,45.40
2023-04-15T04:04:05.102Z,49.30
2023-04-15T04:05:05.005Z,56.30
2023-04-15T04:06:05.105Z,46.40
2023-04-15T04:07:04.970Z,46.30
2023-04-15T04:08:05.020Z,48.70
2023-04-15T04:09:04.917Z,48.40
2023-04-15T04:10:04.938Z,47.40
2023-04-15T04:11:04.929Z,58.50
2023-04-15T04:12:05.062Z,59.00
2023-04-15T04:13:04.898Z,47.10
2023-04-15T04:14:04.904Z,51.40
2023-04-15T04:15:04.845Z,53.80
2023-04-15T04:16:05.028Z,49.80
2023-04-15T04:17:04.893Z,61.70
2023-04-15T04:18:05.003Z,60.60
2023-04-15T04:19:04.804Z,44.50
2023-04-15T04:20:04.841Z,48.10
2023-04-15T04:21:04.783Z,50.70
2023-04-15T04:22:04.778Z,46.20
2023-04-15T04:23:04.765Z,52.50
2023-04-15T04:24:04.882Z,57.40
2023-04-15T04:25:04.760Z,50.60
2023-04-15T04:26:04.752Z,47.00
2023-04-15T04:27:04.681Z,51.50
2023-04-15T04:28:04.735Z,48.20
2023-04-15T04:29:05.646Z,45.40
2023-04-15T04:30:04.717Z,57.00
2023-04-15T04:31:04.659Z,58.40
2023-04-15T04:32:04.713Z,41.80
2023-04-15T04:33:04.667Z,48.70
2023-04-15T04:34:04.676Z,53.80
2023-04-15T04:35:04.590Z,57.80
2023-04-15T04:36:04.737Z,52.00
2023-04-15T04:37:04.571Z,48.50
2023-04-15T04:38:04.559Z,55.00
2023-04-15T04:39:04.571Z,68.40
2023-04-15T04:40:04.621Z,48.20
2023-04-15T04:41:04.545Z,51.50
2023-04-15T04:42:04.640Z,58.20
2023-04-15T04:43:04.497Z,53.70
2023-04-15T04:44:04.519Z,58.90
2023-04-15T04:45:04.435Z,73.80
2023-04-15T04:46:04.515Z,74.80
2023-04-15T04:47:04.451Z,49.30
2023-04-15T04:48:04.645Z,54.00
2023-04-15T04:49:04.557Z,62.80
2023-04-15T04:50:04.446Z,60.80
2023-04-15T04:51:04.403Z,57.20
2023-04-15T04:52:04.389Z,64.30
2023-04-15T04:53:04.360Z,78.20
2023-04-15T04:54:04.528Z,69.20
2023-04-15T04:55:04.347Z,57.50
2023-04-15T04:56:04.365Z,59.60
2023-04-15T04:57:04.294Z,81.20
2023-04-15T04:58:04.306Z,63.60
2023-04-15T04:59:04.302Z,62.30
2023-04-15T05:00:04.430Z,63.80
2023-04-15T05:01:04.285Z,82.40
2023-04-15T05:02:04.404Z,76.40
2023-04-15T05:03:04.336Z,57.80
2023-04-15T05:04:04.268Z,63.60
2023-04-15T05:05:04.208Z,78.10
2023-04-15T05:06:04.262Z,84.00
2023-04-15T05:07:04.192Z,64.10
2023-04-15T05:08:04.209Z,60.30
2023-04-15T05:09:04.129Z,68.40
2023-04-15T05:10:04.148Z,81.10
2023-04-15T05:11:04.138Z,86.10
2023-04-15T05:12:04.190Z,82.90
2023-04-15T05:13:04.115Z,57.30
2023-04-15T05:14:04.116Z,60.30
2023-04-15T05:15:04.052Z,59.10
2023-04-15T05:16:04.169Z,79.30
2023-04-15T05:17:04.035Z,76.40
2023-04-15T05:18:04.177Z,52.80
2023-04-15T05:19:04.082Z,58.60
2023-04-15T05:20:04.054Z,56.10
2023-04-15T05:21:04.007Z,74.30
2023-04-15T05:22:04.004Z,71.30
2023-04-15T05:23:03.980Z,52.10
2023-04-15T05:24:04.119Z,55.20
2023-04-15T05:25:04.090Z,68.10
2023-04-15T05:26:03.973Z,71.60
2023-04-15T05:27:03.912Z,53.60
2023-04-15T05:28:03.952Z,52.70
2023-04-15T05:29:04.060Z,53.70
2023-04-15T05:30:04.015Z,72.20
2023-04-15T05:31:03.896Z,69.90
2023-04-15T05:32:03.864Z,54.70
2023-04-15T05:33:04.867Z,56.10
2023-04-15T05:34:03.889Z,56.30
2023-04-15T05:35:03.792Z,70.30
2023-04-15T05:36:03.940Z,74.90
2023-04-15T05:37:04.626Z,52.00
2023-04-15T05:38:03.788Z,54.10
2023-04-15T05:39:03.896Z,52.80
2023-04-15T05:40:03.729Z,70.80
2023-04-15T05:41:03.776Z,78.80
2023-04-15T05:42:03.848Z,72.30
2023-04-15T05:43:03.730Z,47.20
2023-04-15T05:44:03.701Z,55.40
2023-04-15T05:45:03.687Z,54.60
2023-04-15T05:46:03.723Z,71.80
2023-04-15T05:47:03.698Z,70.80
2023-04-15T05:48:03.661Z,69.60
2023-04-15T05:49:03.869Z,56.60
2023-04-15T05:50:03.628Z,53.60
2023-04-15T05:51:03.622Z,73.00
2023-04-15T05:52:03.569Z,74.90
2023-04-15T05:53:03.620Z,76.60
2023-04-15T05:54:03.671Z,78.40
2023-04-15T05:55:03.582Z,48.40
2023-04-15T05:56:03.556Z,54.50
2023-04-15T05:57:03.534Z,52.80
2023-04-15T05:58:03.497Z,73.90
2023-04-15T05:59:03.564Z,70.40
2023-04-15T06:00:03.504Z,79.80
2023-04-15T06:01:03.501Z,53.20
2023-04-15T06:02:03.506Z,52.70
2023-04-15T06:03:03.524Z,52.90
2023-04-15T06:04:03.586Z,76.60
2023-04-15T06:05:03.529Z,75.90
2023-04-15T06:06:03.725Z,74.70
2023-04-15T06:07:03.453Z,78.00
2023-04-15T06:08:03.391Z,54.80
2023-04-15T06:09:03.480Z,55.70
2023-04-15T06:10:03.346Z,73.90
2023-04-15T06:11:03.446Z,75.40
2023-04-15T06:12:03.346Z,52.40
2023-04-15T06:13:03.346Z,53.30
2023-04-15T06:14:03.337Z,56.30
2023-04-15T06:15:03.288Z,75.60
2023-04-15T06:16:03.308Z,72.00
2023-04-15T06:17:03.267Z,74.80
2023-04-15T06:18:03.332Z,52.40
2023-04-15T06:19:03.421Z,56.10
2023-04-15T06:20:03.219Z,55.10
2023-04-15T06:22:14.265Z,62.50
2023-04-15T06:23:14.283Z,61.40
2023-04-15T06:24:14.220Z,54.00
2023-04-15T06:25:14.182Z,55.70
2023-04-15T06:26:14.336Z,80.60
2023-04-15T06:27:14.178Z,81.10
2023-04-15T06:28:14.173Z,82.00
2023-04-15T06:29:14.245Z,82.20
2023-04-15T06:30:14.158Z,53.30
2023-04-15T06:31:14.125Z,61.00
2023-04-15T06:32:14.135Z,62.50
2023-04-15T06:33:14.096Z,83.50
2023-04-15T06:34:14.090Z,88.50
2023-04-15T06:35:14.121Z,91.80
2023-04-15T06:36:14.058Z,97.90
2023-04-15T06:37:14.027Z,57.90
2023-04-15T06:38:14.056Z,62.40
2023-04-15T06:39:13.986Z,83.80
2023-04-15T06:40:14.027Z,95.90
2023-04-15T06:41:14.036Z,94.90
2023-04-15T06:42:13.978Z,99.30
2023-04-15T06:43:13.934Z,61.40
2023-04-15T06:44:13.973Z,64.40
2023-04-15T06:45:13.924Z,69.50
2023-04-15T06:46:13.984Z,89.60
2023-04-15T06:47:13.938Z,98.80
2023-04-15T06:48:13.892Z,99.70
2023-04-15T06:49:13.850Z,98.20
2023-04-15T06:50:13.924Z,59.80
2023-04-15T06:51:13.828Z,70.10
2023-04-15T06:52:13.859Z,97.90
2023-04-15T06:53:13.949Z,97.50
2023-04-15T06:54:13.816Z,97.50
2023-04-15T06:55:13.801Z,100.50
2023-04-15T06:56:13.787Z,66.30
2023-04-15T06:57:13.772Z,64.80
2023-04-15T06:58:13.797Z,76.60
2023-04-15T06:59:13.765Z,93.70
2023-04-15T07:00:13.723Z,103.50
2023-04-15T07:01:13.692Z,99.80
2023-04-15T07:02:13.776Z,107.50
2023-04-15T07:03:13.719Z,75.80
2023-04-15T07:04:13.724Z,77.50
2023-04-15T07:05:13.688Z,110.20
2023-04-15T07:06:13.647Z,112.70
2023-04-15T07:07:13.625Z,114.40
2023-04-15T07:08:13.618Z,105.80
2023-04-15T07:09:13.578Z,96.50
2023-04-15T07:10:13.623Z,66.10
2023-04-15T07:11:13.690Z,74.50
2023-04-15T07:12:13.596Z,103.30
2023-04-15T07:13:13.549Z,100.40
2023-04-15T07:14:13.541Z,107.20
2023-04-15T07:15:13.528Z,102.50
2023-04-15T07:16:13.539Z,68.00
2023-04-15T07:17:13.751Z,76.90
2023-04-15T07:18:13.517Z,78.60
2023-04-15T07:19:13.444Z,112.20
2023-04-15T07:20:13.485Z,118.20
2023-04-15T07:21:13.445Z,115.40
2023-04-15T07:22:13.420Z,109.30
2023-04-15T07:23:13.555Z,54.80
2023-04-15T07:24:13.404Z,68.50
2023-04-15T07:25:13.367Z,82.20
2023-04-15T07:26:13.403Z,103.50
2023-04-15T07:27:13.349Z,97.60
2023-04-15T07:28:13.380Z,101.90
2023-04-15T07:29:13.456Z,98.30
2023-04-15T07:30:13.339Z,66.60
2023-04-15T07:31:13.356Z,74.20
2023-04-15T07:32:13.333Z,97.60
2023-04-15T07:33:13.285Z,96.30
2023-04-15T07:34:13.282Z,95.30
2023-04-15T07:35:13.367Z,106.10
2023-04-15T07:36:13.245Z,103.30
2023-04-15T07:37:13.192Z,97.60
2023-04-15T07:38:13.261Z,74.70
2023-04-15T07:39:13.172Z,56.30
2023-04-15T07:40:13.294Z,65.00
2023-04-15T07:41:13.313Z,87.60
2023-04-15T07:42:13.158Z,88.40
2023-04-15T07:43:13.145Z,88.50
2023-04-15T07:44:13.160Z,86.60
2023-04-15T07:45:13.106Z,59.40
2023-04-15T07:46:13.197Z,61.00
2023-04-15T07:47:13.141Z,66.30
2023-04-15T07:48:13.095Z,85.50
2023-04-15T07:49:13.055Z,86.10
2023-04-15T07:50:13.088Z,89.60
2023-04-15T07:51:13.029Z,85.40
2023-04-15T07:52:13.046Z,70.00
2023-04-15T07:53:13.134Z,56.90
2023-04-15T07:54:13.002Z,53.60
2023-04-15T07:55:12.986Z,81.60
2023-04-15T07:56:12.973Z,88.00
2023-04-15T07:57:12.937Z,89.60
2023-04-15T07:58:12.985Z,81.90
2023-04-15T07:59:13.059Z,59.50
2023-04-15T08:00:12.949Z,58.30
2023-04-15T08:01:12.916Z,59.00
2023-04-15T08:02:12.996Z,79.70
2023-04-15T08:03:12.926Z,74.40
2023-04-15T08:04:12.987Z,77.10
2023-04-15T08:05:12.959Z,72.90
2023-04-15T08:06:12.838Z,58.30
2023-04-15T08:07:12.823Z,48.00
2023-04-15T08:08:12.814Z,56.90
2023-04-15T08:09:12.777Z,74.60
2023-04-15T08:10:12.826Z,68.90
2023-04-15T08:11:12.887Z,66.90
2023-04-15T08:12:12.789Z,67.30
2023-04-15T08:13:12.746Z,73.90
2023-04-15T08:14:12.735Z,52.60
2023-04-15T08:15:12.713Z,53.00
2023-04-15T08:16:12.725Z,69.70
2023-04-15T08:17:12.724Z,66.40
2023-04-15T08:18:12.704Z,61.20
2023-04-15T08:19:12.643Z,67.10
2023-04-15T08:20:12.672Z,67.60
2023-04-15T08:21:13.478Z,74.90
2023-04-15T08:22:15.590Z,69.60
2023-04-15T08:23:13.725Z,68.10
2023-04-15T08:24:12.597Z,72.40
2023-04-15T08:25:12.558Z,71.50
2023-04-15T08:26:12.601Z,65.90
2023-04-15T08:27:12.541Z,72.00
2023-04-15T08:28:12.572Z,69.90
2023-04-15T08:29:12.574Z,64.90
2023-04-15T08:30:12.520Z,68.00
2023-04-15T08:31:12.540Z,46.40
2023-04-15T08:32:12.491Z,49.00
2023-04-15T08:33:12.451Z,50.70
2023-04-15T08:34:12.528Z,57.40
2023-04-15T08:35:12.563Z,55.50
2023-04-15T08:36:12.447Z,56.00
2023-04-15T08:37:12.782Z,55.70
2023-04-15T08:38:12.438Z,57.30
2023-04-15T08:39:12.364Z,54.00
2023-04-15T08:40:12.408Z,54.00
2023-04-15T08:41:12.411Z,54.90
2023-04-15T08:42:12.365Z,55.80
2023-04-15T08:43:12.357Z,54.60
2023-04-15T08:44:12.335Z,49.80
2023-04-15T08:45:12.310Z,52.80
2023-04-15T08:46:12.331Z,55.90
2023-04-15T08:47:12.314Z,56.30
2023-04-15T08:48:12.321Z,53.60
2023-04-15T08:49:12.265Z,49.50
2023-04-15T08:50:12.254Z,31.10
2023-04-15T08:51:12.215Z,36.00
2023-04-15T08:52:12.272Z,36.00
2023-04-15T08:53:12.252Z,50.70
2023-04-15T08:54:12.205Z,53.90
2023-04-15T08:55:12.206Z,47.60
2023-04-15T08:56:12.173Z,53.10
2023-04-15T08:57:12.132Z,50.10
2023-04-15T08:58:12.180Z,52.40
2023-04-15T08:59:12.193Z,53.00
2023-04-15T09:00:12.154Z,50.40
2023-04-15T09:01:12.225Z,52.30
2023-04-15T09:02:12.149Z,42.20
2023-04-15T09:03:12.188Z,35.40
2023-04-15T09:04:12.104Z,49.50
2023-04-15T09:05:12.075Z,53.00
2023-04-15T09:06:12.072Z,52.90
2023-04-15T09:07:12.038Z,54.80
2023-04-15T09:08:12.052Z,56.30
2023-04-15T09:09:11.972Z,39.50
2023-04-15T09:10:12.022Z,42.00
2023-04-15T09:11:11.986Z,47.60
2023-04-15T09:12:12.001Z,50.70
2023-04-15T09:13:11.957Z,46.60
2023-04-15T09:14:11.946Z,48.60
2023-04-15T09:15:11.925Z,47.30
2023-04-15T09:16:11.930Z,49.60
2023-04-15T09:17:11.916Z,50.50
2023-04-15T09:18:11.910Z,49.80
2023-04-15T09:19:11.857Z,48.10
2023-04-15T09:20:11.881Z,48.40
2023-04-15T09:21:11.843Z,47.00
2023-04-15T09:22:11.825Z,47.30
2023-04-15T09:23:11.860Z,48.80
2023-04-15T09:24:11.803Z,46.70
2023-04-15T09:25:12.588Z,45.10
2023-04-15T09:26:11.771Z,42.60
2023-04-15T09:27:11.792Z,45.10
2023-04-15T09:28:11.722Z,45.60
2023-04-15T09:29:11.892Z,29.70
2023-04-15T09:30:11.723Z,40.80
2023-04-15T09:31:11.744Z,43.10
2023-04-15T09:32:11.687Z,42.80
2023-04-15T09:33:11.747Z,44.70
2023-04-15T09:34:11.641Z,43.90
2023-04-15T09:35:11.720Z,42.00
2023-04-15T09:36:12.362Z,43.90
2023-04-15T09:37:11.627Z,42.50
2023-04-15T09:38:11.612Z,41.60
2023-04-15T09:39:13.445Z,46.80
2023-04-15T09:40:11.561Z,47.40
2023-04-15T09:41:11.616Z,43.50
2023-04-15T09:42:11.549Z,43.60
2023-04-15T09:43:11.543Z,42.60
2023-04-15T09:44:11.527Z,44.50
2023-04-15T09:45:11.583Z,41.60
2023-04-15T09:46:11.595Z,39.60
2023-04-15T09:47:11.551Z,43.70
2023-04-15T09:48:11.448Z,43.80
2023-04-15T09:49:11.491Z,43.90
2023-04-15T09:50:11.449Z,42.30
2023-04-15T09:51:11.434Z,41.70
2023-04-15T09:52:11.420Z,41.90
2023-04-15T09:53:11.472Z,41.90
2023-04-15T09:54:11.369Z,40.10
2023-04-15T09:55:11.391Z,38.90
2023-04-15T09:56:11.373Z,39.80
2023-04-15T09:57:11.380Z,40.90
2023-04-15T09:58:11.310Z,39.70
2023-04-15T09:59:11.491Z,37.90
2023-04-15T10:00:11.283Z,39.50
2023-04-15T10:01:11.330Z,38.90
2023-04-15T10:02:11.342Z,38.00
2023-04-15T10:03:11.329Z,36.70
2023-04-15T10:04:11.367Z,36.50
2023-04-15T10:05:11.336Z,35.20
2023-04-15T10:06:11.212Z,35.30
2023-04-15T10:07:11.314Z,33.10
2023-04-15T10:08:11.180Z,32.80
2023-04-15T10:09:11.247Z,33.40
2023-04-15T10:10:11.187Z,31.70
2023-04-15T10:11:11.244Z,32.60
2023-04-15T10:12:11.121Z,33.80
2023-04-15T10:13:11.138Z,34.60
2023-04-15T10:14:11.119Z,31.60
2023-04-15T10:15:11.123Z,28.50
2023-04-15T10:16:11.150Z,28.40
2023-04-15T10:17:11.233Z,31.40
2023-04-15T10:18:11.089Z,27.70
2023-04-15T10:19:11.085Z,28.40
2023-04-15T10:20:11.015Z,28.60
2023-04-15T10:21:11.046Z,27.40
2023-04-15T10:22:11.014Z,26.10
2023-04-15T10:23:12.907Z,23.90
2023-04-15T10:24:10.999Z,26.00
2023-04-15T10:25:11.007Z,27.60
2023-04-15T10:26:10.949Z,27.00
2023-04-15T10:27:10.989Z,26.70
2023-04-15T10:28:10.936Z,28.00
2023-04-15T10:29:10.973Z,26.10
2023-04-15T10:30:10.908Z,27.80
2023-04-15T10:31:10.931Z,26.20
2023-04-15T10:32:10.874Z,25.60
2023-04-15T10:33:10.892Z,23.60
2023-04-15T10:34:10.844Z,25.10
2023-04-15T10:35:10.911Z,24.80
2023-04-15T10:36:10.810Z,25.70
2023-04-15T10:37:10.818Z,24.40
2023-04-15T10:38:10.799Z,24.20
2023-04-15T10:39:10.793Z,24.30
2023-04-15T10:40:10.777Z,22.20
2023-04-15T10:41:10.876Z,25.40
2023-04-15T10:42:10.743Z,21.70
2023-04-15T10:43:10.737Z,22.70
2023-04-15T10:44:10.719Z,22.40
2023-04-15T10:45:10.732Z,23.60
2023-04-15T10:46:10.684Z,22.30
2023-04-15T10:47:10.851Z,22.50
2023-04-15T10:48:10.668Z,22.50
2023-04-15T10:49:10.650Z,23.40
2023-04-15T10:50:10.635Z,23.60
2023-04-15T10:51:10.627Z,25.60
2023-04-15T10:52:10.612Z,25.40
2023-04-15T10:53:10.689Z,25.50
2023-04-15T10:54:10.554Z,25.10
2023-04-15T10:55:10.598Z,24.80
2023-04-15T10:56:10.533Z,23.30
2023-04-15T10:57:10.553Z,24.40
2023-04-15T10:58:10.556Z,23.70
2023-04-15T10:59:10.665Z,23.90
2023-04-15T11:00:10.468Z,22.80
2023-04-15T11:01:10.505Z,22.80
2023-04-15T11:02:10.572Z,23.60
2023-04-15T11:03:10.571Z,25.10
2023-04-15T11:04:10.514Z,23.90
2023-04-15T11:05:10.502Z,25.30
2023-04-15T11:06:10.400Z,25.90
2023-04-15T11:07:10.432Z,24.60
2023-04-15T11:08:10.369Z,24.50
2023-04-15T11:09:10.380Z,22.30
2023-04-15T11:10:10.374Z,23.50
2023-04-15T11:11:10.390Z,21.40
2023-04-15T11:12:10.340Z,21.50
2023-04-15T11:13:10.367Z,23.40
2023-04-15T11:14:10.282Z,24.70
2023-04-15T11:15:10.293Z,23.10
2023-04-15T11:16:10.360Z,23.10
2023-04-15T11:17:10.345Z,24.10
2023-04-15T11:18:10.265Z,24.20
2023-04-15T11:19:10.277Z,24.90
2023-04-15T11:20:18.445Z,23.70
2023-04-15T11:21:34.447Z,23.00
2023-04-15T11:22:12.458Z,22.00
2023-04-15T11:23:19.527Z,23.20
2023-04-15T11:24:10.203Z,24.10
2023-04-15T11:25:10.136Z,24.60
2023-04-15T11:26:10.176Z,24.40
2023-04-15T11:27:10.104Z,23.10
2023-04-15T11:28:10.118Z,22.00
2023-04-15T11:29:10.142Z,22.30
2023-04-15T11:30:10.090Z,21.60
2023-04-15T11:31:10.080Z,21.70
2023-04-15T11:32:10.236Z,21.60
2023-04-15T11:33:10.024Z,19.40
2023-04-15T11:34:10.063Z,18.90
2023-04-15T11:35:10.122Z,19.40
2023-04-15T11:36:10.017Z,20.80
2023-04-15T11:37:09.996Z,19.90
2023-04-15T11:38:09.989Z,20.30
2023-04-15T11:39:09.964Z,21.80
2023-04-15T11:40:10.010Z,22.20
2023-04-15T11:41:10.039Z,22.10
2023-04-15T11:42:09.970Z,21.70
2023-04-15T11:43:09.898Z,20.40
2023-04-15T11:44:09.903Z,20.50
2023-04-15T11:45:09.890Z,23.50
2023-04-15T11:46:09.953Z,21.80
2023-04-15T11:47:09.968Z,20.50
2023-04-15T11:48:09.858Z,21.40
2023-04-15T11:49:09.840Z,20.90
2023-04-15T11:50:09.832Z,21.00
2023-04-15T11:51:09.830Z,20.80
2023-04-15T11:52:09.827Z,22.10
2023-04-15T11:53:09.882Z,24.20
2023-04-15T11:54:09.790Z,21.00
2023-04-15T11:55:09.736Z,20.10
2023-04-15T11:56:09.749Z,20.00
2023-04-15T11:57:09.732Z,19.90
2023-04-15T11:58:09.725Z,19.30
2023-04-15T11:59:09.752Z,19.90
2023-04-15T12:00:09.769Z,20.30
2023-04-15T12:01:09.659Z,21.50
2023-04-15T12:02:09.725Z,21.70
2023-04-15T12:03:09.903Z,21.80
2023-04-15T12:04:10.042Z,22.90
2023-04-15T12:05:09.673Z,22.00
2023-04-15T12:06:09.664Z,21.40
2023-04-15T12:07:09.575Z,22.50
2023-04-15T12:08:09.577Z,22.60
2023-04-15T12:09:09.569Z,20.30
2023-04-15T12:10:09.635Z,20.80
2023-04-15T12:11:09.668Z,20.60
2023-04-15T12:12:09.561Z,20.10
2023-04-15T12:13:09.488Z,20.60
2023-04-15T12:14:09.525Z,24.10
2023-04-15T12:15:09.455Z,25.10
2023-04-15T12:16:09.504Z,22.60
2023-04-15T12:17:09.501Z,22.90
2023-04-15T12:18:09.500Z,22.00
2023-04-15T12:19:09.397Z,23.50
2023-04-15T12:20:09.415Z,22.90
2023-04-15T12:21:09.398Z,23.30
2023-04-15T12:22:09.390Z,23.90
2023-04-15T12:23:09.503Z,26.00
2023-04-15T12:24:09.410Z,23.70
2023-04-15T12:25:09.314Z,25.20
2023-04-15T12:26:09.359Z,25.40
2023-04-15T12:27:09.312Z,25.60
2023-04-15T12:28:09.306Z,25.40
2023-04-15T12:29:09.342Z,26.10
2023-04-15T12:30:09.282Z,24.40
2023-04-15T12:31:09.326Z,25.60
2023-04-15T12:32:09.308Z,26.30
2023-04-15T12:33:09.236Z,28.10
2023-04-15T12:34:09.261Z,26.40
2023-04-15T12:35:09.327Z,26.70
2023-04-15T12:36:09.198Z,28.00
2023-04-15T12:37:09.177Z,28.10
2023-04-15T12:38:09.175Z,28.70
2023-04-15T12:39:09.157Z,25.00
2023-04-15T12:40:09.937Z,26.60
2023-04-15T12:41:09.232Z,27.60
2023-04-15T12:42:09.219Z,28.10
2023-04-15T12:43:09.078Z,28.10
2023-04-15T12:44:09.093Z,28.00
2023-04-15T12:45:09.078Z,29.10
2023-04-15T12:46:09.101Z,30.40
2023-04-15T12:47:09.181Z,32.40
2023-04-15T12:48:09.079Z,31.70
2023-04-15T12:49:09.016Z,29.60
2023-04-15T12:50:09.009Z,30.00
2023-04-15T12:51:09.009Z,28.40
2023-04-15T12:52:09.008Z,29.80
2023-04-15T12:53:10.448Z,29.80